Current Conditions
Clear
Conditions




Pressure
1047.92 (mb) - 30.94 (inHG)
Visibility

6.2 (mimiles) - 10.0 (km)
   Temperature
3  °C
37°F
0  °C
Dewpoint
81  %
 Humidity
   Wind Speed
3  mph
3  kts
5  km/h
1.3  m/s
   Wind Direction
 250°
West South
West
   Airport Data
EGGD
Location Bristol International 15 mi (24.14 km)
Metar :EGGD 192050Z AUTO 25003KT 9999 NCD 03/M00 Q1048
Sun 19th January 20:50 pm
   Raw Metar Info
Raw METAR is the most common format in the world for the transmission of observational weather data. It is highly standardized through the International Civil Aviation Organization (ICAO), which allows it to be understood throughout most of the world.
   API Info
Data Provided by
https://www.checkwx.com/weather/EGGD
   © Info
CSS/SVG/PHP scripts were developed by weather34.com for use in the weather34 template © 2015-2020

Guide Info provided by Metar-Wikipedia